Terminal Aerodrome Forecast
Issued by NWS San Angelo, TX

Home | Current Version | Previous Version | Text Only | Print | Product List | Glossary On
Versions: 1 2 3 4 5 6 7 8 9 10 11 12 13 14 15 16 17 18 19 20
681
FTUS44 KSJT 281143
TAFSJT
TAF
KSJT 281143Z 2812/0112 21011G16KT P6SM BKN010
      TEMPO 2812/2815 6SM BR
     FM281600 23015G23KT P6SM BKN250
     FM010000 23011KT P6SM BKN250
     FM010600 28010KT P6SM SCT250=

USA.gov is the U.S. government's official web portal to all federal, state and local government web resources and services.